sensor_id;sensor_type;location;lat;lon;timestamp;pressure;altitude;pressure_sealevel;temperature;humidity
33697;BME280;20031;43.416;23.232;2023-03-20T00:00:28;100353.34;;;4.61;78.17
33697;BME280;20031;43.416;23.232;2023-03-20T00:02:55;100357.09;;;4.68;78.69
33697;BME280;20031;43.416;23.232;2023-03-20T00:05:22;100350.91;;;4.71;78.99
33697;BME280;20031;43.416;23.232;2023-03-20T00:07:49;100350.78;;;4.72;79.02
33697;BME280;20031;43.416;23.232;2023-03-20T00:10:16;100345.41;;;4.75;78.86
33697;BME280;20031;43.416;23.232;2023-03-20T00:12:43;100347.75;;;4.78;79.12
33697;BME280;20031;43.416;23.232;2023-03-20T00:15:22;100346.47;;;4.84;79.29
33697;BME280;20031;43.416;23.232;2023-03-20T00:17:47;100346.22;;;4.87;79.75
33697;BME280;20031;43.416;23.232;2023-03-20T00:20:14;100346.84;;;4.90;79.38
33697;BME280;20031;43.416;23.232;2023-03-20T00:22:40;100343.06;;;4.94;79.52
33697;BME280;20031;43.416;23.232;2023-03-20T00:25:06;100344.47;;;4.98;78.93
33697;BME280;20031;43.416;23.232;2023-03-20T00:27:31;100335.94;;;4.98;78.91
33697;BME280;20031;43.416;23.232;2023-03-20T00:29:57;100338.50;;;4.98;79.04
33697;BME280;20031;43.416;23.232;2023-03-20T00:32:23;100334.28;;;4.97;79.11
33697;BME280;20031;43.416;23.232;2023-03-20T00:34:48;100340.50;;;4.94;79.26
33697;BME280;20031;43.416;23.232;2023-03-20T00:37:14;100330.53;;;4.90;79.11
33697;BME280;20031;43.416;23.232;2023-03-20T00:39:40;100336.53;;;4.90;79.07
33697;BME280;20031;43.416;23.232;2023-03-20T00:42:06;100334.88;;;4.89;78.85
33697;BME280;20031;43.416;23.232;2023-03-20T00:44:47;100332.16;;;4.91;78.88
33697;BME280;20031;43.416;23.232;2023-03-20T00:47:19;100326.19;;;4.90;78.90
33697;BME280;20031;43.416;23.232;2023-03-20T00:49:47;100329.94;;;4.86;79.01
33697;BME280;20031;43.416;23.232;2023-03-20T00:52:16;100327.72;;;4.82;78.62
33697;BME280;20031;43.416;23.232;2023-03-20T00:54:42;100320.53;;;4.74;78.53
33697;BME280;20031;43.416;23.232;2023-03-20T00:57:21;100321.22;;;4.65;78.44
33697;BME280;20031;43.416;23.232;2023-03-20T00:59:55;100320.88;;;4.59;78.48
33697;BME280;20031;43.416;23.232;2023-03-20T01:02:25;100318.31;;;4.59;78.46
33697;BME280;20031;43.416;23.232;2023-03-20T01:04:50;100317.47;;;4.58;78.29
33697;BME280;20031;43.416;23.232;2023-03-20T01:07:16;100309.97;;;4.55;78.79
33697;BME280;20031;43.416;23.232;2023-03-20T01:09:42;100322.16;;;4.54;78.58
33697;BME280;20031;43.416;23.232;2023-03-20T01:12:10;100311.59;;;4.46;78.36
33697;BME280;20031;43.416;23.232;2023-03-20T01:14:36;100308.44;;;4.42;78.67
33697;BME280;20031;43.416;23.232;2023-03-20T01:17:02;100303.50;;;4.39;78.55
33697;BME280;20031;43.416;23.232;2023-03-20T01:19:27;100303.28;;;4.42;78.90
33697;BME280;20031;43.416;23.232;2023-03-20T01:21:53;100298.94;;;4.43;78.92
33697;BME280;20031;43.416;23.232;2023-03-20T01:24:18;100299.84;;;4.42;79.09
33697;BME280;20031;43.416;23.232;2023-03-20T01:26:44;100303.38;;;4.41;79.01
33697;BME280;20031;43.416;23.232;2023-03-20T01:29:17;100307.59;;;4.42;79.31
33697;BME280;20031;43.416;23.232;2023-03-20T01:31:43;100307.59;;;4.42;78.91
33697;BME280;20031;43.416;23.232;2023-03-20T01:34:11;100306.78;;;4.41;78.79
33697;BME280;20031;43.416;23.232;2023-03-20T01:36:36;100301.38;;;4.44;79.17
33697;BME280;20031;43.416;23.232;2023-03-20T01:39:03;100304.66;;;4.46;78.79
33697;BME280;20031;43.416;23.232;2023-03-20T01:41:29;100312.31;;;4.48;78.51
33697;BME280;20031;43.416;23.232;2023-03-20T01:43:55;100309.00;;;4.46;78.38
33697;BME280;20031;43.416;23.232;2023-03-20T01:51:29;100309.94;;;4.34;78.50
33697;BME280;20031;43.416;23.232;2023-03-20T01:54:27;100309.78;;;4.24;78.56
33697;BME280;20031;43.416;23.232;2023-03-20T01:57:13;100306.63;;;4.21;78.39
33697;BME280;20031;43.416;23.232;2023-03-20T01:59:46;100315.97;;;4.22;78.78
33697;BME280;20031;43.416;23.232;2023-03-20T02:02:17;100319.22;;;4.13;78.37
33697;BME280;20031;43.416;23.232;2023-03-20T02:04:45;100311.94;;;4.07;78.49
33697;BME280;20031;43.416;23.232;2023-03-20T02:07:15;100310.75;;;4.00;78.36
33697;BME280;20031;43.416;23.232;2023-03-20T02:09:42;100307.78;;;3.94;78.32
33697;BME280;20031;43.416;23.232;2023-03-20T02:12:08;100309.06;;;3.88;78.43
33697;BME280;20031;43.416;23.232;2023-03-20T02:14:34;100307.88;;;3.81;78.86
33697;BME280;20031;43.416;23.232;2023-03-20T02:17:02;100308.91;;;3.79;78.85
33697;BME280;20031;43.416;23.232;2023-03-20T02:19:47;100306.44;;;3.77;79.14
33697;BME280;20031;43.416;23.232;2023-03-20T02:28:08;100317.41;;;3.68;79.06
33697;BME280;20031;43.416;23.232;2023-03-20T02:41:29;100303.97;;;3.76;79.44
33697;BME280;20031;43.416;23.232;2023-03-20T02:44:12;100306.78;;;3.73;79.46
33697;BME280;20031;43.416;23.232;2023-03-20T02:47:36;100303.56;;;3.69;79.58
33697;BME280;20031;43.416;23.232;2023-03-20T02:57:56;100293.00;;;3.61;79.39
33697;BME280;20031;43.416;23.232;2023-03-20T03:00:27;100295.59;;;3.61;79.69
33697;BME280;20031;43.416;23.232;2023-03-20T03:03:07;100288.69;;;3.62;79.79
33697;BME280;20031;43.416;23.232;2023-03-20T03:06:06;100293.81;;;3.62;79.22
33697;BME280;20031;43.416;23.232;2023-03-20T03:08:38;100286.09;;;3.62;79.77
33697;BME280;20031;43.416;23.232;2023-03-20T03:11:07;100295.09;;;3.56;79.56
33697;BME280;20031;43.416;23.232;2023-03-20T03:13:35;100293.16;;;3.48;79.18
33697;BME280;20031;43.416;23.232;2023-03-20T03:16:08;100290.94;;;3.43;79.50
33697;BME280;20031;43.416;23.232;2023-03-20T03:18:36;100291.50;;;3.47;79.86
33697;BME280;20031;43.416;23.232;2023-03-20T03:21:05;100285.44;;;3.48;79.90
33697;BME280;20031;43.416;23.232;2023-03-20T03:23:43;100285.44;;;3.48;79.73
33697;BME280;20031;43.416;23.232;2023-03-20T03:26:19;100291.63;;;3.45;79.95
33697;BME280;20031;43.416;23.232;2023-03-20T03:28:49;100294.41;;;3.42;79.82
33697;BME280;20031;43.416;23.232;2023-03-20T03:31:17;100293.09;;;3.37;79.33
33697;BME280;20031;43.416;23.232;2023-03-20T03:33:46;100292.72;;;3.30;79.50
33697;BME280;20031;43.416;23.232;2023-03-20T03:41:47;100301.22;;;3.07;79.71
33697;BME280;20031;43.416;23.232;2023-03-20T03:44:40;100298.94;;;3.03;79.76
33697;BME280;20031;43.416;23.232;2023-03-20T03:47:15;100295.88;;;2.98;79.99
33697;BME280;20031;43.416;23.232;2023-03-20T03:49:59;100302.03;;;2.96;79.69
33697;BME280;20031;43.416;23.232;2023-03-20T03:52:27;100304.59;;;2.96;80.03
33697;BME280;20031;43.416;23.232;2023-03-20T03:55:01;100311.50;;;2.95;80.21
33697;BME280;20031;43.416;23.232;2023-03-20T04:00:09;100305.34;;;2.85;80.11
33697;BME280;20031;43.416;23.232;2023-03-20T04:02:37;100306.47;;;2.81;80.17
33697;BME280;20031;43.416;23.232;2023-03-20T04:05:05;100311.72;;;2.80;80.38
33697;BME280;20031;43.416;23.232;2023-03-20T04:07:31;100308.13;;;2.82;80.32
33697;BME280;20031;43.416;23.232;2023-03-20T04:09:56;100306.38;;;2.83;80.51
33697;BME280;20031;43.416;23.232;2023-03-20T04:12:36;100313.28;;;2.82;80.28
33697;BME280;20031;43.416;23.232;2023-03-20T04:15:03;100313.38;;;2.81;80.40
33697;BME280;20031;43.416;23.232;2023-03-20T04:17:29;100323.56;;;2.82;80.46
33697;BME280;20031;43.416;23.232;2023-03-20T04:19:54;100317.47;;;2.83;81.02
33697;BME280;20031;43.416;23.232;2023-03-20T04:22:20;100315.53;;;2.87;81.13
33697;BME280;20031;43.416;23.232;2023-03-20T04:24:46;100323.84;;;2.90;80.61
33697;BME280;20031;43.416;23.232;2023-03-20T04:27:11;100333.09;;;2.93;80.87
33697;BME280;20031;43.416;23.232;2023-03-20T04:29:36;100334.13;;;2.90;80.58
33697;BME280;20031;43.416;23.232;2023-03-20T04:32:02;100336.50;;;2.93;81.11
33697;BME280;20031;43.416;23.232;2023-03-20T04:34:27;100335.16;;;3.00;81.01
33697;BME280;20031;43.416;23.232;2023-03-20T04:36:53;100333.91;;;3.05;80.97
33697;BME280;20031;43.416;23.232;2023-03-20T04:39:19;100343.06;;;3.09;80.98
33697;BME280;20031;43.416;23.232;2023-03-20T04:41:45;100345.53;;;3.11;80.88
33697;BME280;20031;43.416;23.232;2023-03-20T04:44:11;100347.91;;;3.14;80.66
33697;BME280;20031;43.416;23.232;2023-03-20T04:46:37;100351.31;;;3.14;80.47
33697;BME280;20031;43.416;23.232;2023-03-20T04:49:02;100348.22;;;3.22;80.91
33697;BME280;20031;43.416;23.232;2023-03-20T04:51:28;100342.84;;;3.25;80.61
33697;BME280;20031;43.416;23.232;2023-03-20T04:53:53;100353.75;;;3.28;80.88
33697;BME280;20031;43.416;23.232;2023-03-20T04:56:18;100354.84;;;3.37;80.77
33697;BME280;20031;43.416;23.232;2023-03-20T04:58:44;100358.53;;;3.45;80.44
33697;BME280;20031;43.416;23.232;2023-03-20T05:01:09;100355.31;;;3.54;80.29
33697;BME280;20031;43.416;23.232;2023-03-20T05:03:35;100358.97;;;3.52;80.13
33697;BME280;20031;43.416;23.232;2023-03-20T05:06:00;100348.22;;;3.57;80.14
33697;BME280;20031;43.416;23.232;2023-03-20T05:08:26;100343.38;;;3.65;79.66
33697;BME280;20031;43.416;23.232;2023-03-20T05:10:51;100346.72;;;3.78;79.73
33697;BME280;20031;43.416;23.232;2023-03-20T05:13:17;100351.53;;;3.83;79.68
33697;BME280;20031;43.416;23.232;2023-03-20T05:15:42;100352.84;;;3.88;79.12
33697;BME280;20031;43.416;23.232;2023-03-20T05:18:08;100348.88;;;3.95;79.20
33697;BME280;20031;43.416;23.232;2023-03-20T05:20:34;100349.38;;;4.00;78.77
33697;BME280;20031;43.416;23.232;2023-03-20T05:23:01;100342.41;;;4.13;79.44
33697;BME280;20031;43.416;23.232;2023-03-20T05:25:26;100346.81;;;4.34;79.37
33697;BME280;20031;43.416;23.232;2023-03-20T05:27:52;100351.34;;;4.54;79.55
33697;BME280;20031;43.416;23.232;2023-03-20T05:30:17;100353.25;;;4.74;79.20
33697;BME280;20031;43.416;23.232;2023-03-20T05:32:44;100342.38;;;4.92;79.03
33697;BME280;20031;43.416;23.232;2023-03-20T05:35:10;100342.84;;;5.08;79.00
33697;BME280;20031;43.416;23.232;2023-03-20T05:37:36;100347.19;;;5.29;78.55
33697;BME280;20031;43.416;23.232;2023-03-20T05:40:02;100348.00;;;5.52;79.02
33697;BME280;20031;43.416;23.232;2023-03-20T05:42:28;100343.72;;;5.72;77.93
33697;BME280;20031;43.416;23.232;2023-03-20T05:44:53;100356.38;;;5.86;77.15
33697;BME280;20031;43.416;23.232;2023-03-20T05:47:18;100353.03;;;6.06;77.12
33697;BME280;20031;43.416;23.232;2023-03-20T05:49:44;100349.91;;;6.23;76.41
33697;BME280;20031;43.416;23.232;2023-03-20T05:52:10;100346.22;;;6.36;75.17
33697;BME280;20031;43.416;23.232;2023-03-20T05:54:36;100341.22;;;6.44;74.47
33697;BME280;20031;43.416;23.232;2023-03-20T05:57:01;100339.53;;;6.34;74.02
33697;BME280;20031;43.416;23.232;2023-03-20T05:59:27;100345.97;;;6.39;74.65
33697;BME280;20031;43.416;23.232;2023-03-20T06:01:52;100346.59;;;6.52;74.71
33697;BME280;20031;43.416;23.232;2023-03-20T06:04:18;100333.88;;;6.60;74.01
33697;BME280;20031;43.416;23.232;2023-03-20T06:06:43;100331.31;;;6.69;73.08
33697;BME280;20031;43.416;23.232;2023-03-20T06:09:09;100330.38;;;6.70;73.29
33697;BME280;20031;43.416;23.232;2023-03-20T06:11:34;100328.22;;;6.75;73.01
33697;BME280;20031;43.416;23.232;2023-03-20T06:14:00;100330.81;;;6.75;72.87
33697;BME280;20031;43.416;23.232;2023-03-20T06:16:25;100338.31;;;6.78;72.32
33697;BME280;20031;43.416;23.232;2023-03-20T06:18:51;100331.31;;;6.90;72.04
33697;BME280;20031;43.416;23.232;2023-03-20T06:21:17;100325.56;;;7.16;72.40
33697;BME280;20031;43.416;23.232;2023-03-20T06:23:42;100317.34;;;7.41;71.08
33697;BME280;20031;43.416;23.232;2023-03-20T06:26:08;100322.69;;;7.49;70.26
33697;BME280;20031;43.416;23.232;2023-03-20T06:28:33;100313.31;;;7.66;69.59
33697;BME280;20031;43.416;23.232;2023-03-20T06:30:59;100312.66;;;7.83;69.27
33697;BME280;20031;43.416;23.232;2023-03-20T06:33:24;100302.03;;;8.05;68.55
33697;BME280;20031;43.416;23.232;2023-03-20T06:35:49;100307.06;;;8.07;67.41
33697;BME280;20031;43.416;23.232;2023-03-20T06:38:15;100312.69;;;8.21;67.04
33697;BME280;20031;43.416;23.232;2023-03-20T06:40:40;100308.19;;;8.42;66.98
33697;BME280;20031;43.416;23.232;2023-03-20T06:43:07;100303.09;;;8.50;65.60
33697;BME280;20031;43.416;23.232;2023-03-20T06:45:33;100311.97;;;8.57;65.12
33697;BME280;20031;43.416;23.232;2023-03-20T06:47:58;100306.91;;;8.64;64.49
33697;BME280;20031;43.416;23.232;2023-03-20T06:50:24;100305.75;;;8.86;64.48
33697;BME280;20031;43.416;23.232;2023-03-20T06:52:49;100311.84;;;9.04;63.56
33697;BME280;20031;43.416;23.232;2023-03-20T06:55:15;100311.91;;;9.21;62.61
33697;BME280;20031;43.416;23.232;2023-03-20T06:57:41;100307.00;;;9.45;62.59
33697;BME280;20031;43.416;23.232;2023-03-20T07:00:07;100306.00;;;9.72;62.07
33697;BME280;20031;43.416;23.232;2023-03-20T07:02:34;100314.88;;;9.97;61.69
33697;BME280;20031;43.416;23.232;2023-03-20T07:05:00;100321.72;;;10.15;61.07
33697;BME280;20031;43.416;23.232;2023-03-20T07:07:26;100307.91;;;10.32;60.37
33697;BME280;20031;43.416;23.232;2023-03-20T07:09:51;100299.59;;;10.54;59.50
33697;BME280;20031;43.416;23.232;2023-03-20T07:12:16;100301.44;;;10.61;58.62
33697;BME280;20031;43.416;23.232;2023-03-20T07:14:44;100296.03;;;10.80;58.77
33697;BME280;20031;43.416;23.232;2023-03-20T07:17:11;100303.69;;;11.07;57.94
33697;BME280;20031;43.416;23.232;2023-03-20T07:19:37;100306.56;;;11.29;58.02
33697;BME280;20031;43.416;23.232;2023-03-20T07:22:05;100306.66;;;11.53;57.33
33697;BME280;20031;43.416;23.232;2023-03-20T07:24:33;100303.16;;;11.77;56.64
33697;BME280;20031;43.416;23.232;2023-03-20T07:26:59;100310.19;;;11.77;55.45
33697;BME280;20031;43.416;23.232;2023-03-20T07:29:25;100296.47;;;11.91;55.40
33697;BME280;20031;43.416;23.232;2023-03-20T07:31:50;100304.19;;;12.16;55.00
33697;BME280;20031;43.416;23.232;2023-03-20T07:34:19;100312.53;;;12.35;54.42
33697;BME280;20031;43.416;23.232;2023-03-20T07:36:45;100305.34;;;12.45;53.83
33697;BME280;20031;43.416;23.232;2023-03-20T07:39:12;100306.47;;;12.67;53.46
33697;BME280;20031;43.416;23.232;2023-03-20T07:41:37;100301.19;;;12.74;52.11
33697;BME280;20031;43.416;23.232;2023-03-20T07:44:03;100301.19;;;12.82;52.24
33697;BME280;20031;43.416;23.232;2023-03-20T07:46:28;100307.25;;;12.99;52.22
33697;BME280;20031;43.416;23.232;2023-03-20T07:48:54;100305.09;;;13.02;51.38
33697;BME280;20031;43.416;23.232;2023-03-20T07:51:22;100305.88;;;13.19;51.24
33697;BME280;20031;43.416;23.232;2023-03-20T07:53:48;100293.81;;;13.48;50.99
33697;BME280;20031;43.416;23.232;2023-03-20T07:56:13;100301.03;;;13.76;50.54
33697;BME280;20031;43.416;23.232;2023-03-20T07:58:39;100297.66;;;13.90;49.73
33697;BME280;20031;43.416;23.232;2023-03-20T08:01:04;100299.31;;;13.91;48.97
33697;BME280;20031;43.416;23.232;2023-03-20T08:03:30;100296.50;;;13.92;48.86
33697;BME280;20031;43.416;23.232;2023-03-20T08:05:56;100299.22;;;14.07;48.91
33697;BME280;20031;43.416;23.232;2023-03-20T08:08:21;100290.88;;;14.26;48.43
33697;BME280;20031;43.416;23.232;2023-03-20T08:10:46;100297.44;;;14.44;48.17
33697;BME280;20031;43.416;23.232;2023-03-20T08:13:12;100297.66;;;14.57;47.96
33697;BME280;20031;43.416;23.232;2023-03-20T08:15:38;100297.97;;;14.62;47.67
33697;BME280;20031;43.416;23.232;2023-03-20T08:18:03;100291.16;;;14.67;47.04
33697;BME280;20031;43.416;23.232;2023-03-20T08:20:29;100286.44;;;14.63;46.85
33697;BME280;20031;43.416;23.232;2023-03-20T08:22:55;100293.59;;;14.69;47.00
33697;BME280;20031;43.416;23.232;2023-03-20T08:25:21;100285.50;;;14.92;46.94
33697;BME280;20031;43.416;23.232;2023-03-20T08:27:47;100294.81;;;15.09;46.44
33697;BME280;20031;43.416;23.232;2023-03-20T08:30:13;100291.03;;;15.26;46.06
33697;BME280;20031;43.416;23.232;2023-03-20T08:32:39;100292.44;;;15.57;45.66
33697;BME280;20031;43.416;23.232;2023-03-20T08:35:05;100285.22;;;15.80;45.17
33697;BME280;20031;43.416;23.232;2023-03-20T08:37:30;100284.44;;;16.00;45.31
33697;BME280;20031;43.416;23.232;2023-03-20T08:39:56;100288.25;;;16.19;44.42
33697;BME280;20031;43.416;23.232;2023-03-20T08:42:21;100279.84;;;16.23;44.35
33697;BME280;20031;43.416;23.232;2023-03-20T08:44:46;100285.13;;;16.23;44.45
33697;BME280;20031;43.416;23.232;2023-03-20T08:47:12;100276.41;;;16.50;43.71
33697;BME280;20031;43.416;23.232;2023-03-20T08:49:38;100273.81;;;16.77;43.69
33697;BME280;20031;43.416;23.232;2023-03-20T08:52:03;100269.50;;;17.03;43.12
33697;BME280;20031;43.416;23.232;2023-03-20T08:54:29;100268.91;;;17.08;42.50
33697;BME280;20031;43.416;23.232;2023-03-20T08:56:55;100263.03;;;17.06;42.78
33697;BME280;20031;43.416;23.232;2023-03-20T08:59:20;100266.72;;;17.11;42.66
33697;BME280;20031;43.416;23.232;2023-03-20T09:01:46;100258.44;;;17.14;42.62
33697;BME280;20031;43.416;23.232;2023-03-20T09:04:12;100263.19;;;17.32;42.40
33697;BME280;20031;43.416;23.232;2023-03-20T09:06:39;100261.25;;;17.46;42.12
33697;BME280;20031;43.416;23.232;2023-03-20T09:09:05;100268.59;;;17.64;41.73
33697;BME280;20031;43.416;23.232;2023-03-20T09:11:32;100263.34;;;17.64;41.68
33697;BME280;20031;43.416;23.232;2023-03-20T09:13:58;100259.91;;;17.70;41.77
33697;BME280;20031;43.416;23.232;2023-03-20T09:16:24;100260.34;;;17.92;40.59
33697;BME280;20031;43.416;23.232;2023-03-20T09:18:50;100263.63;;;18.07;41.21
33697;BME280;20031;43.416;23.232;2023-03-20T09:21:15;100255.75;;;18.27;40.98
33697;BME280;20031;43.416;23.232;2023-03-20T09:23:41;100248.47;;;18.42;40.48
33697;BME280;20031;43.416;23.232;2023-03-20T09:26:06;100247.25;;;18.50;40.40
33697;BME280;20031;43.416;23.232;2023-03-20T09:28:32;100251.69;;;18.76;39.99
33697;BME280;20031;43.416;23.232;2023-03-20T09:30:58;100243.91;;;19.06;39.46
33697;BME280;20031;43.416;23.232;2023-03-20T09:33:24;100244.09;;;19.18;38.49
33697;BME280;20031;43.416;23.232;2023-03-20T09:35:51;100240.03;;;19.15;38.29
33697;BME280;20031;43.416;23.232;2023-03-20T09:38:16;100237.75;;;19.25;38.31
33697;BME280;20031;43.416;23.232;2023-03-20T09:40:56;100223.28;;;19.41;38.17
33697;BME280;20031;43.416;23.232;2023-03-20T09:49:06;100214.94;;;20.11;38.52
33697;BME280;20031;43.416;23.232;2023-03-20T09:51:41;100213.28;;;20.10;37.79
33697;BME280;20031;43.416;23.232;2023-03-20T09:54:21;100210.78;;;20.15;37.84
33697;BME280;20031;43.416;23.232;2023-03-20T09:56:49;100200.75;;;19.99;37.80
33697;BME280;20031;43.416;23.232;2023-03-20T09:59:17;100192.88;;;19.87;38.75
33697;BME280;20031;43.416;23.232;2023-03-20T10:02:05;100195.88;;;20.03;38.51
33697;BME280;20031;43.416;23.232;2023-03-20T10:04:36;100194.28;;;19.96;38.73
33697;BME280;20031;43.416;23.232;2023-03-20T10:07:05;100183.91;;;19.94;38.46
33697;BME280;20031;43.416;23.232;2023-03-20T10:09:31;100186.63;;;20.12;38.80
33697;BME280;20031;43.416;23.232;2023-03-20T10:15:06;100175.63;;;20.57;39.10
33697;BME280;20031;43.416;23.232;2023-03-20T10:20:32;100173.00;;;20.93;38.75
33697;BME280;20031;43.416;23.232;2023-03-20T10:23:24;100166.38;;;21.01;38.60
33697;BME280;20031;43.416;23.232;2023-03-20T10:25:55;100165.88;;;21.11;38.79
33697;BME280;20031;43.416;23.232;2023-03-20T10:28:35;100156.97;;;21.05;38.37
33697;BME280;20031;43.416;23.232;2023-03-20T10:41:42;100149.25;;;21.62;37.79
33697;BME280;20031;43.416;23.232;2023-03-20T10:44:15;100146.16;;;21.65;37.69
33697;BME280;20031;43.416;23.232;2023-03-20T10:46:48;100138.94;;;21.43;37.81
33697;BME280;20031;43.416;23.232;2023-03-20T10:49:20;100132.31;;;21.52;37.65
33697;BME280;20031;43.416;23.232;2023-03-20T10:51:58;100140.75;;;21.60;37.50
33697;BME280;20031;43.416;23.232;2023-03-20T10:54:33;100136.94;;;21.68;37.00
33697;BME280;20031;43.416;23.232;2023-03-20T10:57:05;100125.63;;;21.61;36.79
33697;BME280;20031;43.416;23.232;2023-03-20T10:59:43;100128.97;;;21.56;36.95
33697;BME280;20031;43.416;23.232;2023-03-20T11:02:14;100121.75;;;21.75;36.54
33697;BME280;20031;43.416;23.232;2023-03-20T11:04:41;100120.72;;;21.76;35.83
33697;BME280;20031;43.416;23.232;2023-03-20T11:07:31;100116.22;;;21.88;36.55
33697;BME280;20031;43.416;23.232;2023-03-20T11:12:48;100105.84;;;22.20;35.69
33697;BME280;20031;43.416;23.232;2023-03-20T11:17:58;100106.56;;;22.39;34.44
33697;BME280;20031;43.416;23.232;2023-03-20T11:20:26;100096.31;;;22.42;35.14
33697;BME280;20031;43.416;23.232;2023-03-20T11:22:58;100091.00;;;22.42;34.67
33697;BME280;20031;43.416;23.232;2023-03-20T11:25:29;100092.97;;;22.35;34.55
33697;BME280;20031;43.416;23.232;2023-03-20T11:27:57;100088.22;;;22.37;34.88
33697;BME280;20031;43.416;23.232;2023-03-20T11:30:42;100079.25;;;22.66;34.32
33697;BME280;20031;43.416;23.232;2023-03-20T11:33:07;100074.19;;;22.64;34.16
33697;BME280;20031;43.416;23.232;2023-03-20T11:35:32;100063.25;;;22.61;33.50
33697;BME280;20031;43.416;23.232;2023-03-20T11:38:15;100072.72;;;22.57;33.45
33697;BME280;20031;43.416;23.232;2023-03-20T11:40:41;100058.00;;;22.66;33.92
33697;BME280;20031;43.416;23.232;2023-03-20T11:43:17;100055.19;;;22.84;33.82
33697;BME280;20031;43.416;23.232;2023-03-20T11:45:45;100050.84;;;22.78;33.34
33697;BME280;20031;43.416;23.232;2023-03-20T11:51:04;100044.69;;;22.77;33.41
33697;BME280;20031;43.416;23.232;2023-03-20T11:53:34;100042.72;;;22.84;33.56
33697;BME280;20031;43.416;23.232;2023-03-20T11:58:26;100030.25;;;22.85;32.83
33697;BME280;20031;43.416;23.232;2023-03-20T12:00:54;100033.03;;;22.78;32.67
33697;BME280;20031;43.416;23.232;2023-03-20T12:06:13;100024.41;;;22.71;32.24
33697;BME280;20031;43.416;23.232;2023-03-20T12:08:42;100019.91;;;22.72;31.78
33697;BME280;20031;43.416;23.232;2023-03-20T12:12:17;100022.31;;;22.73;32.22
33697;BME280;20031;43.416;23.232;2023-03-20T12:19:46;100019.69;;;22.90;30.58
33697;BME280;20031;43.416;23.232;2023-03-20T12:22:42;100007.69;;;22.87;29.34
33697;BME280;20031;43.416;23.232;2023-03-20T12:25:23;100010.28;;;22.82;29.77
33697;BME280;20031;43.416;23.232;2023-03-20T12:27:57;100001.78;;;22.97;30.30
33697;BME280;20031;43.416;23.232;2023-03-20T12:35:57;99984.09;;;23.02;28.18
33697;BME280;20031;43.416;23.232;2023-03-20T12:38:30;99989.66;;;23.01;28.59
33697;BME280;20031;43.416;23.232;2023-03-20T12:41:33;99981.56;;;22.96;28.02
33697;BME280;20031;43.416;23.232;2023-03-20T12:52:12;99977.41;;;22.72;28.46
33697;BME280;20031;43.416;23.232;2023-03-20T12:55:04;99966.31;;;22.75;28.37
33697;BME280;20031;43.416;23.232;2023-03-20T12:57:47;99972.53;;;22.69;29.77
33697;BME280;20031;43.416;23.232;2023-03-20T13:00:29;99965.06;;;22.66;29.95
33697;BME280;20031;43.416;23.232;2023-03-20T13:03:19;99964.16;;;22.60;29.49
33697;BME280;20031;43.416;23.232;2023-03-20T13:06:00;99968.00;;;22.53;28.70
33697;BME280;20031;43.416;23.232;2023-03-20T13:14:04;99942.03;;;22.27;29.60
33697;BME280;20031;43.416;23.232;2023-03-20T13:16:54;99944.59;;;22.11;29.89
33697;BME280;20031;43.416;23.232;2023-03-20T13:19:48;99937.09;;;21.97;30.52
33697;BME280;20031;43.416;23.232;2023-03-20T13:22:22;99938.16;;;21.96;30.65
33697;BME280;20031;43.416;23.232;2023-03-20T13:24:54;99932.38;;;21.99;30.45
33697;BME280;20031;43.416;23.232;2023-03-20T13:27:33;99921.66;;;21.94;30.59
33697;BME280;20031;43.416;23.232;2023-03-20T13:30:30;99919.59;;;21.96;30.54
33697;BME280;20031;43.416;23.232;2023-03-20T13:33:30;99919.47;;;21.91;30.17
33697;BME280;20031;43.416;23.232;2023-03-20T13:36:46;99920.31;;;21.91;30.02
33697;BME280;20031;43.416;23.232;2023-03-20T13:38:58;99921.56;;;21.89;30.09
33697;BME280;20031;43.416;23.232;2023-03-20T13:41:26;99917.06;;;21.78;30.04
33697;BME280;20031;43.416;23.232;2023-03-20T13:43:55;99911.53;;;21.79;30.08
33697;BME280;20031;43.416;23.232;2023-03-20T13:47:05;99919.97;;;21.76;29.30
33697;BME280;20031;43.416;23.232;2023-03-20T13:49:28;99913.19;;;21.69;29.62
33697;BME280;20031;43.416;23.232;2023-03-20T13:52:05;99910.06;;;21.60;30.37
33697;BME280;20031;43.416;23.232;2023-03-20T14:03:25;99903.59;;;21.68;30.26
33697;BME280;20031;43.416;23.232;2023-03-20T14:05:53;99906.50;;;21.66;29.98
33697;BME280;20031;43.416;23.232;2023-03-20T14:13:33;99887.91;;;21.78;29.36
33697;BME280;20031;43.416;23.232;2023-03-20T14:16:02;99891.00;;;21.86;29.18
33697;BME280;20031;43.416;23.232;2023-03-20T14:18:29;99878.31;;;21.88;29.76
33697;BME280;20031;43.416;23.232;2023-03-20T14:20:59;99888.00;;;21.94;29.71
33697;BME280;20031;43.416;23.232;2023-03-20T14:23:34;99874.75;;;21.83;29.25
33697;BME280;20031;43.416;23.232;2023-03-20T14:26:00;99876.16;;;21.74;29.44
33697;BME280;20031;43.416;23.232;2023-03-20T14:28:29;99872.03;;;21.66;29.59
33697;BME280;20031;43.416;23.232;2023-03-20T14:33:42;99869.06;;;21.40;29.30
33697;BME280;20031;43.416;23.232;2023-03-20T14:36:28;99864.19;;;21.37;29.98
33697;BME280;20031;43.416;23.232;2023-03-20T14:42:19;99869.47;;;21.37;30.20
33697;BME280;20031;43.416;23.232;2023-03-20T14:47:33;99870.88;;;21.28;30.83
33697;BME280;20031;43.416;23.232;2023-03-20T14:52:54;99868.94;;;21.12;31.09
33697;BME280;20031;43.416;23.232;2023-03-20T14:57:51;99870.97;;;20.99;31.18
33697;BME280;20031;43.416;23.232;2023-03-20T15:00:24;99867.44;;;20.94;31.44
33697;BME280;20031;43.416;23.232;2023-03-20T15:02:54;99870.97;;;20.88;31.05
33697;BME280;20031;43.416;23.232;2023-03-20T15:05:25;99867.75;;;20.74;31.60